HAZ2814 ZGGG-ZSHC
Flight info
| Callsign | HAZ2814 |
|---|---|
| Flight time | 1h 23m |
| Altitude | 36100 |
| Route | BOVMA9 BOVMA W41 OMDUP G471 PLT/K0846S1130 A599 ELNEX ELNEX91 |
| Aircraft | A321/M-SDE3FGHIRWY/LB1 |
Departure
| Time | 2026-04-28 10:45 |
|---|---|
| Airport | Guangzhou Baiyun International Airport (ZGGG) |
Arrival
| Time | 2026-04-28 12:09 |
|---|---|
| Airport | Hangzhou Xiaoshan International Airport (ZSHC) |
| Time | Latitude | Longitude | Altitude | Speed | Heading |
|---|---|---|---|---|---|
| 2026-04-28 10:34 | 23.39210 | 113.30353 | 50 ft | 0 kts | 194° |
| 2026-04-28 10:34 | 23.39211 | 113.30354 | 50 ft | 2 kts | 194° |
| 2026-04-28 10:35 | 23.39235 | 113.30361 | 49 ft | 4 kts | 193° |
| 2026-04-28 10:35 | 23.39260 | 113.30362 | 52 ft | 4 kts | 159° |
| 2026-04-28 10:35 | 23.39281 | 113.30347 | 53 ft | 4 kts | 123° |
| 2026-04-28 10:35 | 23.39290 | 113.30327 | 50 ft | 0 kts | 103° |
| 2026-04-28 10:37 | 23.39284 | 113.30356 | 53 ft | 9 kts | 104° |
| 2026-04-28 10:37 | 23.39263 | 113.30448 | 54 ft | 14 kts | 104° |
| 2026-04-28 10:38 | 23.39241 | 113.30546 | 54 ft | 14 kts | 103° |
| 2026-04-28 10:38 | 23.39209 | 113.30652 | 54 ft | 14 kts | 133° |
| 2026-04-28 10:38 | 23.39121 | 113.30651 | 54 ft | 13 kts | 194° |
| 2026-04-28 10:38 | 23.39035 | 113.30627 | 54 ft | 13 kts | 194° |
| 2026-04-28 10:39 | 23.38940 | 113.30601 | 54 ft | 16 kts | 194° |
| 2026-04-28 10:39 | 23.38825 | 113.30569 | 54 ft | 17 kts | 194° |
| 2026-04-28 10:39 | 23.38712 | 113.30539 | 52 ft | 16 kts | 194° |
| 2026-04-28 10:39 | 23.38606 | 113.30511 | 54 ft | 15 kts | 194° |
| 2026-04-28 10:40 | 23.38505 | 113.30484 | 54 ft | 16 kts | 194° |
| 2026-04-28 10:40 | 23.38377 | 113.30449 | 54 ft | 22 kts | 194° |
| 2026-04-28 10:40 | 23.38214 | 113.30405 | 54 ft | 24 kts | 193° |
| 2026-04-28 10:40 | 23.38055 | 113.30362 | 54 ft | 23 kts | 194° |
| 2026-04-28 10:41 | 23.37898 | 113.30320 | 54 ft | 22 kts | 194° |
| 2026-04-28 10:41 | 23.37755 | 113.30279 | 54 ft | 21 kts | 194° |
| 2026-04-28 10:41 | 23.37650 | 113.30268 | 54 ft | 13 kts | 154° |
| 2026-04-28 10:41 | 23.37617 | 113.30351 | 54 ft | 14 kts | 103° |
| 2026-04-28 10:42 | 23.37594 | 113.30458 | 51 ft | 14 kts | 103° |
| 2026-04-28 10:42 | 23.37573 | 113.30561 | 56 ft | 14 kts | 103° |
| 2026-04-28 10:42 | 23.37542 | 113.30683 | 55 ft | 19 kts | 109° |
| 2026-04-28 10:42 | 23.37479 | 113.30709 | 55 ft | 7 kts | 193° |
| 2026-04-28 10:43 | 23.37405 | 113.30691 | 52 ft | 15 kts | 193° |
| 2026-04-28 10:43 | 23.37288 | 113.30660 | 55 ft | 18 kts | 194° |
| 2026-04-28 10:43 | 23.37170 | 113.30629 | 51 ft | 17 kts | 193° |
| 2026-04-28 10:43 | 23.37060 | 113.30600 | 55 ft | 15 kts | 193° |
| 2026-04-28 10:44 | 23.36998 | 113.30637 | 53 ft | 10 kts | 111° |
| 2026-04-28 10:44 | 23.36981 | 113.30708 | 55 ft | 11 kts | 105° |
| 2026-04-28 10:44 | 23.37003 | 113.30780 | 55 ft | 11 kts | 30° |
| 2026-04-28 10:44 | 23.37129 | 113.30818 | 54 ft | 38 kts | 14° |
| 2026-04-28 10:45 | 23.37614 | 113.30950 | 50 ft | 103 kts | 14° |
| 2026-04-28 10:45 | 23.38478 | 113.31183 | 50 ft | 151 kts | 14° |
| 2026-04-28 10:45 | 23.39619 | 113.31493 | 114 ft | 182 kts | 14° |
| 2026-04-28 10:45 | 23.40849 | 113.31826 | 716 ft | 180 kts | 14° |
| 2026-04-28 10:46 | 23.42082 | 113.32156 | 1222 ft | 186 kts | 17° |
| 2026-04-28 10:46 | 23.43352 | 113.32499 | 1745 ft | 189 kts | 17° |
| 2026-04-28 10:46 | 23.44630 | 113.32845 | 2272 ft | 190 kts | 17° |
| 2026-04-28 10:46 | 23.45924 | 113.33196 | 2727 ft | 192 kts | 15° |
| 2026-04-28 10:47 | 23.47229 | 113.33549 | 3165 ft | 194 kts | 15° |
| 2026-04-28 10:47 | 23.48586 | 113.33918 | 3374 ft | 210 kts | 15° |
| 2026-04-28 10:47 | 23.50066 | 113.34320 | 3518 ft | 228 kts | 14° |
| 2026-04-28 10:47 | 23.51658 | 113.34750 | 3636 ft | 245 kts | 14° |
| 2026-04-28 10:48 | 23.53366 | 113.35216 | 3761 ft | 262 kts | 13° |
| 2026-04-28 10:48 | 23.55168 | 113.35705 | 4134 ft | 269 kts | 14° |
| 2026-04-28 10:48 | 23.57002 | 113.36152 | 4784 ft | 270 kts | 10° |
| 2026-04-28 10:48 | 23.58857 | 113.36521 | 5485 ft | 271 kts | 8° |
| 2026-04-28 10:49 | 23.60699 | 113.36989 | 6172 ft | 274 kts | 21° |
| 2026-04-28 10:49 | 23.62324 | 113.38080 | 6791 ft | 277 kts | 44° |
| 2026-04-28 10:49 | 23.63518 | 113.39785 | 7121 ft | 292 kts | 68° |
| 2026-04-28 10:49 | 23.64092 | 113.41932 | 7589 ft | 299 kts | 81° |
| 2026-04-28 10:50 | 23.64539 | 113.44168 | 8174 ft | 304 kts | 80° |
| 2026-04-28 10:50 | 23.64846 | 113.45666 | 8594 ft | 307 kts | 79° |
| 2026-04-28 10:50 | 23.65490 | 113.48734 | 9446 ft | 313 kts | 79° |
| 2026-04-28 10:50 | 23.65984 | 113.51060 | 10047 ft | 318 kts | 78° |
| 2026-04-28 10:51 | 23.66500 | 113.53486 | 10219 ft | 339 kts | 78° |
| 2026-04-28 10:51 | 23.67049 | 113.56073 | 10339 ft | 361 kts | 78° |
| 2026-04-28 10:51 | 23.67625 | 113.58812 | 10458 ft | 380 kts | 78° |
| 2026-04-28 10:51 | 23.68228 | 113.61694 | 10573 ft | 398 kts | 78° |
| 2026-04-28 10:52 | 23.68846 | 113.64638 | 10861 ft | 408 kts | 78° |
| 2026-04-28 10:52 | 23.69486 | 113.67668 | 11330 ft | 412 kts | 78° |
| 2026-04-28 10:52 | 23.70134 | 113.70728 | 11866 ft | 416 kts | 78° |
| 2026-04-28 10:52 | 23.70786 | 113.73815 | 12356 ft | 419 kts | 78° |
| 2026-04-28 10:53 | 23.71437 | 113.76928 | 12869 ft | 423 kts | 78° |
| 2026-04-28 10:53 | 23.72094 | 113.80059 | 13382 ft | 425 kts | 78° |
| 2026-04-28 10:53 | 23.72755 | 113.83214 | 13820 ft | 428 kts | 78° |
| 2026-04-28 10:53 | 23.73417 | 113.86388 | 14247 ft | 430 kts | 78° |
| 2026-04-28 10:54 | 23.74082 | 113.89584 | 14677 ft | 433 kts | 78° |
| 2026-04-28 10:54 | 23.74749 | 113.92795 | 15090 ft | 436 kts | 78° |
| 2026-04-28 10:54 | 23.75421 | 113.96031 | 15507 ft | 438 kts | 78° |
| 2026-04-28 10:54 | 23.76096 | 113.99285 | 15912 ft | 441 kts | 78° |
| 2026-04-28 10:55 | 23.76775 | 114.02554 | 16336 ft | 443 kts | 78° |
| 2026-04-28 10:55 | 23.77460 | 114.05847 | 16727 ft | 446 kts | 78° |
| 2026-04-28 10:55 | 23.78146 | 114.09162 | 17111 ft | 450 kts | 78° |
| 2026-04-28 10:55 | 23.78833 | 114.12501 | 17496 ft | 452 kts | 78° |
| 2026-04-28 10:56 | 23.79523 | 114.15861 | 17858 ft | 455 kts | 78° |
| 2026-04-28 10:56 | 23.80219 | 114.19239 | 18229 ft | 458 kts | 78° |
| 2026-04-28 10:56 | 23.80990 | 114.22620 | 18538 ft | 460 kts | 72° |
| 2026-04-28 10:56 | 23.82225 | 114.25853 | 18846 ft | 463 kts | 62° |
| 2026-04-28 10:57 | 23.83951 | 114.28817 | 19178 ft | 464 kts | 51° |
| 2026-04-28 10:57 | 23.86115 | 114.31431 | 19495 ft | 465 kts | 41° |
| 2026-04-28 10:57 | 23.88638 | 114.33636 | 19828 ft | 465 kts | 35° |
| 2026-04-28 10:57 | 23.91239 | 114.35750 | 20183 ft | 467 kts | 35° |
| 2026-04-28 10:58 | 23.93848 | 114.37878 | 20499 ft | 469 kts | 35° |
| 2026-04-28 10:58 | 23.96467 | 114.40023 | 20795 ft | 472 kts | 35° |
| 2026-04-28 10:58 | 23.99099 | 114.42183 | 21063 ft | 475 kts | 35° |
| 2026-04-28 10:58 | 24.01742 | 114.44356 | 21410 ft | 476 kts | 35° |
| 2026-04-28 10:59 | 24.04397 | 114.46538 | 21731 ft | 478 kts | 35° |
| 2026-04-28 10:59 | 24.07061 | 114.48725 | 22039 ft | 480 kts | 35° |
| 2026-04-28 10:59 | 24.09739 | 114.50921 | 22339 ft | 482 kts | 35° |
| 2026-04-28 10:59 | 24.12430 | 114.53128 | 22631 ft | 484 kts | 35° |
| 2026-04-28 11:00 | 24.15128 | 114.55344 | 22934 ft | 486 kts | 35° |
| 2026-04-28 11:00 | 24.17839 | 114.57569 | 23230 ft | 488 kts | 35° |
| 2026-04-28 11:00 | 24.20563 | 114.59809 | 23490 ft | 490 kts | 35° |
| 2026-04-28 11:00 | 24.23295 | 114.62057 | 23721 ft | 492 kts | 35° |
| 2026-04-28 11:01 | 24.26032 | 114.64313 | 23951 ft | 493 kts | 35° |
| 2026-04-28 11:01 | 24.28777 | 114.66574 | 24181 ft | 495 kts | 35° |
| 2026-04-28 11:01 | 24.31534 | 114.68846 | 24414 ft | 496 kts | 35° |
| 2026-04-28 11:01 | 24.34295 | 114.71122 | 24659 ft | 497 kts | 35° |
| 2026-04-28 11:02 | 24.36126 | 114.72633 | 24823 ft | 498 kts | 35° |
| 2026-04-28 11:02 | 24.39835 | 114.75698 | 25137 ft | 500 kts | 35° |
| 2026-04-28 11:02 | 24.41677 | 114.77223 | 25296 ft | 501 kts | 36° |
| 2026-04-28 11:02 | 24.45368 | 114.80281 | 25625 ft | 503 kts | 36° |
| 2026-04-28 11:03 | 24.47256 | 114.81846 | 25776 ft | 504 kts | 36° |
| 2026-04-28 11:03 | 24.50973 | 114.84924 | 26067 ft | 506 kts | 35° |
| 2026-04-28 11:03 | 24.53785 | 114.87250 | 26314 ft | 506 kts | 35° |
| 2026-04-28 11:03 | 24.55683 | 114.88820 | 26523 ft | 505 kts | 35° |
| 2026-04-28 11:04 | 24.58544 | 114.91046 | 26810 ft | 503 kts | 30° |
| 2026-04-28 11:04 | 24.61632 | 114.92808 | 27101 ft | 499 kts | 20° |
| 2026-04-28 11:04 | 24.64900 | 114.94041 | 27402 ft | 495 kts | 12° |
| 2026-04-28 11:04 | 24.68253 | 114.94884 | 27693 ft | 494 kts | 10° |
| 2026-04-28 11:05 | 24.71607 | 114.95707 | 27946 ft | 494 kts | 10° |
| 2026-04-28 11:05 | 24.74965 | 114.96538 | 28224 ft | 494 kts | 10° |
| 2026-04-28 11:05 | 24.78315 | 114.97366 | 28525 ft | 493 kts | 10° |
| 2026-04-28 11:05 | 24.81620 | 114.98178 | 28815 ft | 493 kts | 10° |
| 2026-04-28 11:06 | 24.85008 | 114.99005 | 29123 ft | 492 kts | 10° |
| 2026-04-28 11:06 | 24.88298 | 114.99803 | 29419 ft | 491 kts | 9° |
| 2026-04-28 11:06 | 24.91630 | 115.00606 | 29727 ft | 490 kts | 9° |
| 2026-04-28 11:06 | 24.94955 | 115.01408 | 30023 ft | 489 kts | 10° |
| 2026-04-28 11:07 | 24.98280 | 115.02214 | 30234 ft | 489 kts | 10° |
| 2026-04-28 11:07 | 25.01601 | 115.03024 | 30459 ft | 489 kts | 9° |
| 2026-04-28 11:07 | 25.04922 | 115.03836 | 30723 ft | 488 kts | 9° |
| 2026-04-28 11:07 | 25.08232 | 115.04648 | 30998 ft | 487 kts | 9° |
| 2026-04-28 11:08 | 25.11536 | 115.05462 | 31276 ft | 486 kts | 9° |
| 2026-04-28 11:08 | 25.14832 | 115.06269 | 31542 ft | 485 kts | 9° |
| 2026-04-28 11:08 | 25.18123 | 115.07072 | 31812 ft | 484 kts | 9° |
| 2026-04-28 11:08 | 25.21411 | 115.07876 | 32085 ft | 483 kts | 9° |
| 2026-04-28 11:09 | 25.24691 | 115.08680 | 32365 ft | 483 kts | 9° |
| 2026-04-28 11:09 | 25.27967 | 115.09480 | 32646 ft | 482 kts | 8° |
| 2026-04-28 11:09 | 25.31260 | 115.10016 | 32931 ft | 476 kts | 359° |
| 2026-04-28 11:09 | 25.34543 | 115.09952 | 33217 ft | 469 kts | 349° |
| 2026-04-28 11:10 | 25.37733 | 115.09309 | 33501 ft | 463 kts | 340° |
| 2026-04-28 11:10 | 25.40745 | 115.08130 | 33780 ft | 457 kts | 331° |
| 2026-04-28 11:10 | 25.43623 | 115.06653 | 34040 ft | 455 kts | 331° |
| 2026-04-28 11:10 | 25.46492 | 115.05178 | 34295 ft | 454 kts | 331° |
| 2026-04-28 11:11 | 25.49355 | 115.03711 | 34544 ft | 453 kts | 330° |
| 2026-04-28 11:11 | 25.52213 | 115.02249 | 34814 ft | 452 kts | 330° |
| 2026-04-28 11:11 | 25.55067 | 115.00789 | 35047 ft | 451 kts | 330° |
| 2026-04-28 11:11 | 25.57912 | 114.99330 | 35248 ft | 451 kts | 329° |
| 2026-04-28 11:12 | 25.60758 | 114.97867 | 35460 ft | 450 kts | 329° |
| 2026-04-28 11:12 | 25.63597 | 114.96405 | 35675 ft | 450 kts | 329° |
| 2026-04-28 11:12 | 25.66431 | 114.94941 | 35878 ft | 450 kts | 329° |
| 2026-04-28 11:13 | 25.72102 | 114.92011 | 35957 ft | 450 kts | 329° |
| 2026-04-28 11:13 | 25.75079 | 114.90864 | 35954 ft | 459 kts | 343° |
| 2026-04-28 11:13 | 25.78295 | 114.90548 | 35954 ft | 471 kts | 357° |
| 2026-04-28 11:13 | 25.81559 | 114.91152 | 35957 ft | 483 kts | 13° |
| 2026-04-28 11:14 | 25.84647 | 114.92705 | 35952 ft | 493 kts | 29° |
| 2026-04-28 11:14 | 25.87304 | 114.95144 | 35954 ft | 501 kts | 44° |
| 2026-04-28 11:14 | 25.89697 | 114.97970 | 35952 ft | 503 kts | 44° |
| 2026-04-28 11:15 | 25.94477 | 115.03654 | 35948 ft | 503 kts | 44° |
| 2026-04-28 11:15 | 25.99258 | 115.09341 | 35963 ft | 504 kts | 44° |
| 2026-04-28 11:16 | 26.04043 | 115.15032 | 35967 ft | 504 kts | 44° |
| 2026-04-28 11:16 | 26.08790 | 115.20687 | 35971 ft | 503 kts | 44° |
| 2026-04-28 11:17 | 26.13568 | 115.26384 | 35970 ft | 503 kts | 44° |
| 2026-04-28 11:17 | 26.18376 | 115.32120 | 35969 ft | 503 kts | 44° |
| 2026-04-28 11:18 | 26.23112 | 115.37774 | 35971 ft | 502 kts | 44° |
| 2026-04-28 11:18 | 26.27870 | 115.43476 | 35998 ft | 502 kts | 44° |
| 2026-04-28 11:19 | 26.32629 | 115.49178 | 35989 ft | 502 kts | 44° |
| 2026-04-28 11:19 | 26.37377 | 115.54883 | 35989 ft | 502 kts | 44° |
| 2026-04-28 11:20 | 26.42124 | 115.60586 | 35987 ft | 502 kts | 44° |
| 2026-04-28 11:20 | 26.46864 | 115.66296 | 35983 ft | 501 kts | 44° |
| 2026-04-28 11:21 | 26.51594 | 115.72002 | 35995 ft | 501 kts | 44° |
| 2026-04-28 11:21 | 26.56326 | 115.77708 | 35983 ft | 501 kts | 44° |
| 2026-04-28 11:22 | 26.61056 | 115.83419 | 35983 ft | 501 kts | 44° |
| 2026-04-28 11:22 | 26.65785 | 115.89133 | 35975 ft | 501 kts | 44° |
| 2026-04-28 11:23 | 26.70506 | 115.94857 | 35978 ft | 501 kts | 44° |
| 2026-04-28 11:23 | 26.75227 | 116.00588 | 35996 ft | 501 kts | 44° |
| 2026-04-28 11:24 | 26.79949 | 116.06311 | 35988 ft | 501 kts | 44° |
| 2026-04-28 11:24 | 26.84677 | 116.12056 | 35988 ft | 502 kts | 44° |
| 2026-04-28 11:25 | 26.89397 | 116.17813 | 36001 ft | 502 kts | 44° |
| 2026-04-28 11:25 | 26.94122 | 116.23573 | 35988 ft | 502 kts | 44° |
| 2026-04-28 11:26 | 26.98875 | 116.29303 | 35991 ft | 501 kts | 43° |
| 2026-04-28 11:26 | 27.03633 | 116.35024 | 35994 ft | 502 kts | 43° |
| 2026-04-28 11:27 | 27.08390 | 116.40751 | 35993 ft | 502 kts | 44° |
| 2026-04-28 11:27 | 27.13139 | 116.46491 | 35992 ft | 502 kts | 44° |
| 2026-04-28 11:28 | 27.17879 | 116.52251 | 36000 ft | 502 kts | 44° |
| 2026-04-28 11:28 | 27.22641 | 116.58006 | 35983 ft | 503 kts | 43° |
| 2026-04-28 11:29 | 27.27484 | 116.63661 | 35997 ft | 502 kts | 42° |
| 2026-04-28 11:29 | 27.32368 | 116.69270 | 35991 ft | 502 kts | 42° |
| 2026-04-28 11:30 | 27.37233 | 116.74907 | 35996 ft | 502 kts | 43° |
| 2026-04-28 11:30 | 27.44468 | 116.83370 | 36002 ft | 503 kts | 43° |
| 2026-04-28 11:31 | 27.49314 | 116.89053 | 35989 ft | 503 kts | 43° |
| 2026-04-28 11:31 | 27.54163 | 116.94731 | 35994 ft | 502 kts | 42° |
| 2026-04-28 11:32 | 27.59044 | 117.00366 | 36001 ft | 502 kts | 42° |
| 2026-04-28 11:32 | 27.63931 | 117.05989 | 36016 ft | 502 kts | 42° |
| 2026-04-28 11:33 | 27.68807 | 117.11629 | 36020 ft | 502 kts | 42° |
| 2026-04-28 11:33 | 27.73673 | 117.17278 | 36009 ft | 502 kts | 42° |
| 2026-04-28 11:34 | 27.78529 | 117.22933 | 36012 ft | 501 kts | 42° |
| 2026-04-28 11:34 | 27.83382 | 117.28588 | 36030 ft | 501 kts | 41° |
| 2026-04-28 11:35 | 27.88245 | 117.34242 | 36021 ft | 502 kts | 41° |
| 2026-04-28 11:35 | 27.93109 | 117.39902 | 36024 ft | 502 kts | 41° |
| 2026-04-28 11:36 | 27.97941 | 117.45549 | 36022 ft | 503 kts | 42° |
| 2026-04-28 11:36 | 28.02795 | 117.51243 | 36045 ft | 503 kts | 42° |
| 2026-04-28 11:37 | 28.07664 | 117.56951 | 36020 ft | 504 kts | 42° |
| 2026-04-28 11:37 | 28.12541 | 117.62673 | 36022 ft | 505 kts | 42° |
| 2026-04-28 11:38 | 28.17425 | 117.68410 | 36021 ft | 506 kts | 42° |
| 2026-04-28 11:38 | 28.22307 | 117.74144 | 36031 ft | 505 kts | 42° |
| 2026-04-28 11:39 | 28.27187 | 117.79885 | 36031 ft | 506 kts | 42° |
| 2026-04-28 11:39 | 28.32067 | 117.85640 | 36029 ft | 506 kts | 42° |
| 2026-04-28 11:40 | 28.36941 | 117.91403 | 36027 ft | 506 kts | 42° |
| 2026-04-28 11:40 | 28.41816 | 117.97172 | 36035 ft | 506 kts | 42° |
| 2026-04-28 11:41 | 28.46640 | 118.03007 | 36052 ft | 507 kts | 43° |
| 2026-04-28 11:41 | 28.51408 | 118.08919 | 36037 ft | 507 kts | 43° |
| 2026-04-28 11:42 | 28.56167 | 118.14837 | 36047 ft | 507 kts | 43° |
| 2026-04-28 11:42 | 28.60946 | 118.20729 | 36049 ft | 506 kts | 43° |
| 2026-04-28 11:43 | 28.65727 | 118.26616 | 36062 ft | 506 kts | 42° |
| 2026-04-28 11:43 | 28.70509 | 118.32514 | 36061 ft | 507 kts | 43° |
| 2026-04-28 11:44 | 28.75246 | 118.38383 | 36041 ft | 507 kts | 43° |
| 2026-04-28 11:44 | 28.80006 | 118.44304 | 36063 ft | 506 kts | 43° |
| 2026-04-28 11:45 | 28.84773 | 118.50226 | 35556 ft | 507 kts | 43° |
| 2026-04-28 11:45 | 28.87154 | 118.53186 | 35080 ft | 507 kts | 44° |
| 2026-04-28 11:45 | 28.89539 | 118.56153 | 34615 ft | 508 kts | 44° |
| 2026-04-28 11:46 | 28.91927 | 118.59126 | 34159 ft | 509 kts | 44° |
| 2026-04-28 11:46 | 28.94321 | 118.62109 | 33679 ft | 510 kts | 44° |
| 2026-04-28 11:46 | 28.96717 | 118.65099 | 33154 ft | 511 kts | 44° |
| 2026-04-28 11:46 | 28.99117 | 118.68093 | 32643 ft | 511 kts | 45° |
| 2026-04-28 11:47 | 29.01517 | 118.71089 | 32144 ft | 511 kts | 45° |
| 2026-04-28 11:47 | 29.03915 | 118.74086 | 31663 ft | 512 kts | 45° |
| 2026-04-28 11:47 | 29.06322 | 118.77097 | 31202 ft | 514 kts | 45° |
| 2026-04-28 11:47 | 29.08739 | 118.80118 | 30747 ft | 515 kts | 45° |
| 2026-04-28 11:48 | 29.11155 | 118.83146 | 30277 ft | 515 kts | 46° |
| 2026-04-28 11:48 | 29.13567 | 118.86177 | 29775 ft | 516 kts | 46° |
| 2026-04-28 11:48 | 29.15985 | 118.89217 | 29244 ft | 517 kts | 46° |
| 2026-04-28 11:48 | 29.18409 | 118.92263 | 28734 ft | 518 kts | 46° |
| 2026-04-28 11:49 | 29.20841 | 118.95316 | 28221 ft | 519 kts | 46° |
| 2026-04-28 11:49 | 29.23270 | 118.98369 | 27703 ft | 519 kts | 46° |
| 2026-04-28 11:49 | 29.25704 | 119.01431 | 27237 ft | 520 kts | 46° |
| 2026-04-28 11:49 | 29.28134 | 119.04493 | 26752 ft | 520 kts | 46° |
| 2026-04-28 11:50 | 29.30568 | 119.07564 | 26273 ft | 521 kts | 46° |
| 2026-04-28 11:50 | 29.33004 | 119.10643 | 25810 ft | 522 kts | 46° |
| 2026-04-28 11:50 | 29.34618 | 119.12684 | 25501 ft | 522 kts | 46° |
| 2026-04-28 11:50 | 29.37055 | 119.15770 | 25042 ft | 523 kts | 46° |
| 2026-04-28 11:51 | 29.39496 | 119.18866 | 24592 ft | 524 kts | 46° |
| 2026-04-28 11:51 | 29.41938 | 119.21970 | 24156 ft | 524 kts | 46° |
| 2026-04-28 11:51 | 29.44381 | 119.25077 | 23726 ft | 525 kts | 46° |
| 2026-04-28 11:51 | 29.46816 | 119.28178 | 23216 ft | 520 kts | 46° |
| 2026-04-28 11:52 | 29.49227 | 119.31249 | 22729 ft | 516 kts | 46° |
| 2026-04-28 11:52 | 29.51618 | 119.34293 | 22216 ft | 511 kts | 46° |
| 2026-04-28 11:52 | 29.53987 | 119.37308 | 21716 ft | 506 kts | 46° |
| 2026-04-28 11:52 | 29.56332 | 119.40294 | 21239 ft | 501 kts | 46° |
| 2026-04-28 11:53 | 29.58655 | 119.43255 | 20744 ft | 496 kts | 46° |
| 2026-04-28 11:53 | 29.60956 | 119.46187 | 20284 ft | 492 kts | 46° |
| 2026-04-28 11:53 | 29.63361 | 119.48945 | 19834 ft | 486 kts | 38° |
| 2026-04-28 11:53 | 29.66056 | 119.51262 | 19373 ft | 482 kts | 31° |
| 2026-04-28 11:54 | 29.68832 | 119.53408 | 18922 ft | 480 kts | 31° |
| 2026-04-28 11:54 | 29.71584 | 119.55544 | 18485 ft | 474 kts | 31° |
| 2026-04-28 11:54 | 29.74305 | 119.57667 | 17984 ft | 471 kts | 31° |
| 2026-04-28 11:54 | 29.77008 | 119.59782 | 17470 ft | 469 kts | 32° |
| 2026-04-28 11:55 | 29.79693 | 119.61889 | 16973 ft | 466 kts | 32° |
| 2026-04-28 11:55 | 29.82360 | 119.63984 | 16479 ft | 462 kts | 32° |
| 2026-04-28 11:55 | 29.84992 | 119.66042 | 15989 ft | 452 kts | 30° |
| 2026-04-28 11:55 | 29.87706 | 119.67788 | 15503 ft | 442 kts | 25° |
| 2026-04-28 11:56 | 29.90370 | 119.69391 | 15050 ft | 434 kts | 25° |
| 2026-04-28 11:56 | 29.93025 | 119.70995 | 14584 ft | 428 kts | 25° |
| 2026-04-28 11:56 | 29.95646 | 119.72580 | 14121 ft | 423 kts | 25° |
| 2026-04-28 11:56 | 29.98234 | 119.74148 | 13636 ft | 418 kts | 25° |
| 2026-04-28 11:57 | 30.00789 | 119.75705 | 13119 ft | 413 kts | 27° |
| 2026-04-28 11:57 | 30.03092 | 119.77664 | 12614 ft | 411 kts | 44° |
| 2026-04-28 11:57 | 30.04830 | 119.80255 | 12126 ft | 406 kts | 62° |
| 2026-04-28 11:57 | 30.06115 | 119.83104 | 11918 ft | 393 kts | 63° |
| 2026-04-28 11:58 | 30.07345 | 119.85844 | 11926 ft | 375 kts | 63° |
| 2026-04-28 11:58 | 30.08522 | 119.88456 | 11937 ft | 358 kts | 63° |
| 2026-04-28 11:58 | 30.09648 | 119.90949 | 11935 ft | 342 kts | 63° |
| 2026-04-28 11:58 | 30.10732 | 119.93351 | 11932 ft | 334 kts | 63° |
| 2026-04-28 11:59 | 30.11800 | 119.95719 | 11759 ft | 331 kts | 63° |
| 2026-04-28 11:59 | 30.12854 | 119.98057 | 11274 ft | 327 kts | 64° |
| 2026-04-28 11:59 | 30.13896 | 120.00380 | 10758 ft | 324 kts | 64° |
| 2026-04-28 11:59 | 30.14844 | 120.02710 | 10279 ft | 316 kts | 77° |
| 2026-04-28 12:00 | 30.14932 | 120.05151 | 9799 ft | 298 kts | 109° |
| 2026-04-28 12:00 | 30.13973 | 120.07148 | 9276 ft | 279 kts | 141° |
| 2026-04-28 12:00 | 30.12434 | 120.08436 | 8709 ft | 271 kts | 153° |
| 2026-04-28 12:00 | 30.10786 | 120.09468 | 8156 ft | 268 kts | 154° |
| 2026-04-28 12:01 | 30.09133 | 120.10423 | 7645 ft | 264 kts | 154° |
| 2026-04-28 12:01 | 30.07485 | 120.11333 | 7127 ft | 261 kts | 153° |
| 2026-04-28 12:01 | 30.06072 | 120.12580 | 6630 ft | 256 kts | 127° |
| 2026-04-28 12:01 | 30.05372 | 120.14440 | 6085 ft | 256 kts | 98° |
| 2026-04-28 12:02 | 30.05576 | 120.16449 | 5620 ft | 255 kts | 70° |
| 2026-04-28 12:02 | 30.06625 | 120.18078 | 5154 ft | 257 kts | 41° |
| 2026-04-28 12:02 | 30.08246 | 120.18927 | 4671 ft | 259 kts | 18° |
| 2026-04-28 12:02 | 30.09995 | 120.19322 | 4332 ft | 249 kts | 15° |
| 2026-04-28 12:03 | 30.11647 | 120.19635 | 4195 ft | 232 kts | 15° |
| 2026-04-28 12:03 | 30.13175 | 120.19965 | 4026 ft | 213 kts | 24° |
| 2026-04-28 12:03 | 30.14417 | 120.20699 | 3844 ft | 189 kts | 43° |
| 2026-04-28 12:03 | 30.15272 | 120.21713 | 3665 ft | 168 kts | 58° |
| 2026-04-28 12:04 | 30.15827 | 120.22859 | 3452 ft | 160 kts | 65° |
| 2026-04-28 12:04 | 30.16330 | 120.23990 | 3235 ft | 156 kts | 65° |
| 2026-04-28 12:04 | 30.16825 | 120.25103 | 3027 ft | 155 kts | 64° |
| 2026-04-28 12:04 | 30.17316 | 120.26206 | 2808 ft | 152 kts | 64° |
| 2026-04-28 12:05 | 30.17777 | 120.27240 | 2633 ft | 140 kts | 64° |
| 2026-04-28 12:05 | 30.18217 | 120.28228 | 2444 ft | 138 kts | 63° |
| 2026-04-28 12:05 | 30.18651 | 120.29203 | 2244 ft | 132 kts | 62° |
| 2026-04-28 12:05 | 30.19054 | 120.30109 | 2071 ft | 122 kts | 62° |
| 2026-04-28 12:06 | 30.19435 | 120.30966 | 1894 ft | 119 kts | 62° |
| 2026-04-28 12:06 | 30.19812 | 120.31812 | 1736 ft | 119 kts | 62° |
| 2026-04-28 12:06 | 30.20195 | 120.32672 | 1581 ft | 121 kts | 62° |
| 2026-04-28 12:06 | 30.20584 | 120.33548 | 1416 ft | 124 kts | 60° |
| 2026-04-28 12:07 | 30.20984 | 120.34447 | 1245 ft | 127 kts | 60° |
| 2026-04-28 12:07 | 30.21392 | 120.35364 | 1077 ft | 129 kts | 60° |
| 2026-04-28 12:07 | 30.21801 | 120.36285 | 915 ft | 129 kts | 59° |
| 2026-04-28 12:07 | 30.22214 | 120.37215 | 733 ft | 131 kts | 61° |
| 2026-04-28 12:08 | 30.22636 | 120.38165 | 568 ft | 135 kts | 60° |
| 2026-04-28 12:08 | 30.23076 | 120.39155 | 420 ft | 138 kts | 59° |
| 2026-04-28 12:08 | 30.23516 | 120.40146 | 234 ft | 136 kts | 60° |
| 2026-04-28 12:08 | 30.23955 | 120.41133 | 49 ft | 136 kts | 59° |
| 2026-04-28 12:09 | 30.24326 | 120.41971 | 33 ft | 89 kts | 62° |
| 2026-04-28 12:09 | 30.24521 | 120.42411 | 30 ft | 26 kts | 68° |
| 2026-04-28 12:09 | 30.24557 | 120.42592 | 29 ft | 22 kts | 85° |
| 2026-04-28 12:09 | 30.24552 | 120.42739 | 31 ft | 13 kts | 107° |
| 2026-04-28 12:10 | 30.24495 | 120.42772 | 32 ft | 9 kts | 214° |
| 2026-04-28 12:10 | 30.24462 | 120.42713 | 32 ft | 8 kts | 243° |
| 2026-04-28 12:10 | 30.24427 | 120.42635 | 31 ft | 15 kts | 243° |
| 2026-04-28 12:10 | 30.24379 | 120.42527 | 32 ft | 15 kts | 243° |
| 2026-04-28 12:11 | 30.24328 | 120.42430 | 32 ft | 14 kts | 214° |
| 2026-04-28 12:11 | 30.24245 | 120.42448 | 32 ft | 12 kts | 153° |
| 2026-04-28 12:11 | 30.24171 | 120.42482 | 31 ft | 11 kts | 167° |
| 2026-04-28 12:11 | 30.24104 | 120.42511 | 30 ft | 10 kts | 153° |
| 2026-04-28 12:12 | 30.24054 | 120.42533 | 32 ft | 6 kts | 178° |
| 2026-04-28 12:12 | 30.24021 | 120.42509 | 32 ft | 5 kts | 221° |
| 2026-04-28 12:12 | 30.24007 | 120.42494 | 32 ft | 0 kts | 221° |